Wilmington, North Carolina
Current Conditions -  °F | °C
As of 6:53 PM on Friday 21 Nov 2014 (Local Time) from KILM Reporting Station
Clear Clear  
Wind Chill: 35°   Ceiling: Unl
Heat Index: 40°   Visibility: 10mi
Dew Point: 22°   Wind: 7mph
Humidity: 49%   Direction: 50°NE
Pressure: 30.49"   Gusts: NA
Location:  34.24°N, 77.94°W
Report Text: KILM 212353Z 05006KT 10SM CLR 04/M06 A3049 RMK AO2 SLP326 T00441056 10139 20039 53025
Loading
Personal Weather Stations






























Interactive Weather Map New forecast layout! Learn more

10-Day Weather Forecast

Advertisements
Track Severe Weather on mobile